sensor_id;sensor_type;location;lat;lon;timestamp;P1;durP1;ratioP1;P2;durP2;ratioP2
20476;SDS011;10397;50.948;11.092;2024-02-26T00:01:58;0.47;;;0.47;;
20476;SDS011;10397;50.948;11.092;2024-02-26T00:04:29;0.10;;;0.10;;
20476;SDS011;10397;50.948;11.092;2024-02-26T00:07:01;0.20;;;0.20;;
20476;SDS011;10397;50.948;11.092;2024-02-26T00:09:32;0.10;;;0.10;;
20476;SDS011;10397;50.948;11.092;2024-02-26T00:12:03;0.23;;;0.10;;
20476;SDS011;10397;50.948;11.092;2024-02-26T00:14:34;0.00;;;0.00;;
20476;SDS011;10397;50.948;11.092;2024-02-26T00:17:05;1.00;;;0.20;;
20476;SDS011;10397;50.948;11.092;2024-02-26T00:19:37;0.00;;;0.00;;
20476;SDS011;10397;50.948;11.092;2024-02-26T00:22:08;0.30;;;0.10;;
20476;SDS011;10397;50.948;11.092;2024-02-26T00:24:40;0.20;;;0.10;;
20476;SDS011;10397;50.948;11.092;2024-02-26T00:27:11;0.10;;;0.10;;
20476;SDS011;10397;50.948;11.092;2024-02-26T00:29:42;0.20;;;0.20;;
20476;SDS011;10397;50.948;11.092;2024-02-26T00:32:14;0.00;;;0.00;;
20476;SDS011;10397;50.948;11.092;2024-02-26T00:34:45;0.00;;;0.00;;
20476;SDS011;10397;50.948;11.092;2024-02-26T00:37:16;0.13;;;0.10;;
20476;SDS011;10397;50.948;11.092;2024-02-26T00:39:48;0.10;;;0.10;;
20476;SDS011;10397;50.948;11.092;2024-02-26T00:42:19;0.65;;;0.10;;
20476;SDS011;10397;50.948;11.092;2024-02-26T00:44:50;1.95;;;0.33;;
20476;SDS011;10397;50.948;11.092;2024-02-26T00:47:21;0.20;;;0.20;;
20476;SDS011;10397;50.948;11.092;2024-02-26T00:49:52;1.40;;;0.23;;
20476;SDS011;10397;50.948;11.092;2024-02-26T00:52:24;0.45;;;0.42;;
20476;SDS011;10397;50.948;11.092;2024-02-26T00:54:55;0.10;;;0.00;;
20476;SDS011;10397;50.948;11.092;2024-02-26T00:57:27;0.20;;;0.17;;
20476;SDS011;10397;50.948;11.092;2024-02-26T00:59:58;0.20;;;0.10;;
20476;SDS011;10397;50.948;11.092;2024-02-26T01:02:30;0.10;;;0.10;;
20476;SDS011;10397;50.948;11.092;2024-02-26T01:05:01;0.45;;;0.10;;
20476;SDS011;10397;50.948;11.092;2024-02-26T01:07:32;0.30;;;0.30;;
20476;SDS011;10397;50.948;11.092;2024-02-26T01:10:03;0.10;;;0.10;;
20476;SDS011;10397;50.948;11.092;2024-02-26T01:12:36;0.27;;;0.20;;
20476;SDS011;10397;50.948;11.092;2024-02-26T01:15:07;0.00;;;0.00;;
20476;SDS011;10397;50.948;11.092;2024-02-26T01:17:38;0.03;;;0.00;;
20476;SDS011;10397;50.948;11.092;2024-02-26T01:20:10;0.10;;;0.10;;
20476;SDS011;10397;50.948;11.092;2024-02-26T01:22:42;0.00;;;0.00;;
20476;SDS011;10397;50.948;11.092;2024-02-26T01:25:12;0.00;;;0.00;;
20476;SDS011;10397;50.948;11.092;2024-02-26T01:27:43;0.00;;;0.00;;
20476;SDS011;10397;50.948;11.092;2024-02-26T01:30:14;0.00;;;0.00;;
20476;SDS011;10397;50.948;11.092;2024-02-26T01:32:45;0.00;;;0.00;;
20476;SDS011;10397;50.948;11.092;2024-02-26T01:35:16;0.00;;;0.00;;
20476;SDS011;10397;50.948;11.092;2024-02-26T01:37:48;0.60;;;0.37;;
20476;SDS011;10397;50.948;11.092;2024-02-26T01:40:19;0.00;;;0.00;;
20476;SDS011;10397;50.948;11.092;2024-02-26T01:42:50;0.03;;;0.00;;
20476;SDS011;10397;50.948;11.092;2024-02-26T01:45:21;0.37;;;0.10;;
20476;SDS011;10397;50.948;11.092;2024-02-26T01:47:52;0.20;;;0.20;;
20476;SDS011;10397;50.948;11.092;2024-02-26T01:50:23;0.00;;;0.00;;
20476;SDS011;10397;50.948;11.092;2024-02-26T01:52:54;0.17;;;0.00;;
20476;SDS011;10397;50.948;11.092;2024-02-26T01:55:25;0.60;;;0.28;;
20476;SDS011;10397;50.948;11.092;2024-02-26T01:57:57;0.40;;;0.40;;
20476;SDS011;10397;50.948;11.092;2024-02-26T02:00:28;0.20;;;0.10;;
20476;SDS011;10397;50.948;11.092;2024-02-26T02:03:00;0.20;;;0.20;;
20476;SDS011;10397;50.948;11.092;2024-02-26T02:05:30;0.00;;;0.00;;
20476;SDS011;10397;50.948;11.092;2024-02-26T02:08:01;0.00;;;0.00;;
20476;SDS011;10397;50.948;11.092;2024-02-26T02:10:32;0.73;;;0.10;;
20476;SDS011;10397;50.948;11.092;2024-02-26T02:13:03;0.10;;;0.00;;
20476;SDS011;10397;50.948;11.092;2024-02-26T02:15:34;0.00;;;0.00;;
20476;SDS011;10397;50.948;11.092;2024-02-26T02:18:06;0.00;;;0.00;;
20476;SDS011;10397;50.948;11.092;2024-02-26T02:20:36;0.30;;;0.23;;
20476;SDS011;10397;50.948;11.092;2024-02-26T02:23:08;0.10;;;0.00;;
20476;SDS011;10397;50.948;11.092;2024-02-26T02:25:39;0.08;;;0.00;;
20476;SDS011;10397;50.948;11.092;2024-02-26T02:28:11;0.30;;;0.10;;
20476;SDS011;10397;50.948;11.092;2024-02-26T02:30:42;0.05;;;0.05;;
20476;SDS011;10397;50.948;11.092;2024-02-26T02:33:13;0.23;;;0.23;;
20476;SDS011;10397;50.948;11.092;2024-02-26T02:35:43;0.10;;;0.10;;
20476;SDS011;10397;50.948;11.092;2024-02-26T02:38:15;0.08;;;0.05;;
20476;SDS011;10397;50.948;11.092;2024-02-26T02:40:46;0.35;;;0.10;;
20476;SDS011;10397;50.948;11.092;2024-02-26T02:43:18;0.65;;;0.30;;
20476;SDS011;10397;50.948;11.092;2024-02-26T02:45:50;0.00;;;0.00;;
20476;SDS011;10397;50.948;11.092;2024-02-26T02:48:21;0.95;;;0.23;;
20476;SDS011;10397;50.948;11.092;2024-02-26T02:50:53;0.00;;;0.00;;
20476;SDS011;10397;50.948;11.092;2024-02-26T02:53:25;0.20;;;0.10;;
20476;SDS011;10397;50.948;11.092;2024-02-26T02:55:56;0.00;;;0.00;;
20476;SDS011;10397;50.948;11.092;2024-02-26T02:58:28;0.23;;;0.20;;
20476;SDS011;10397;50.948;11.092;2024-02-26T03:00:59;0.10;;;0.10;;
20476;SDS011;10397;50.948;11.092;2024-02-26T03:03:30;0.13;;;0.00;;
20476;SDS011;10397;50.948;11.092;2024-02-26T03:06:01;0.20;;;0.20;;
20476;SDS011;10397;50.948;11.092;2024-02-26T03:08:32;0.10;;;0.00;;
20476;SDS011;10397;50.948;11.092;2024-02-26T03:11:04;0.00;;;0.00;;
20476;SDS011;10397;50.948;11.092;2024-02-26T03:13:35;0.20;;;0.10;;
20476;SDS011;10397;50.948;11.092;2024-02-26T03:16:06;0.03;;;0.03;;
20476;SDS011;10397;50.948;11.092;2024-02-26T03:18:40;0.25;;;0.23;;
20476;SDS011;10397;50.948;11.092;2024-02-26T03:21:11;0.00;;;0.00;;
20476;SDS011;10397;50.948;11.092;2024-02-26T03:23:42;0.85;;;0.10;;
20476;SDS011;10397;50.948;11.092;2024-02-26T03:26:13;0.45;;;0.35;;
20476;SDS011;10397;50.948;11.092;2024-02-26T03:28:44;0.30;;;0.10;;
20476;SDS011;10397;50.948;11.092;2024-02-26T03:31:15;0.07;;;0.07;;
20476;SDS011;10397;50.948;11.092;2024-02-26T03:33:47;0.05;;;0.05;;
20476;SDS011;10397;50.948;11.092;2024-02-26T03:36:18;0.00;;;0.00;;
20476;SDS011;10397;50.948;11.092;2024-02-26T03:38:53;0.20;;;0.20;;
20476;SDS011;10397;50.948;11.092;2024-02-26T03:41:24;0.10;;;0.00;;
20476;SDS011;10397;50.948;11.092;2024-02-26T03:43:56;0.17;;;0.17;;
20476;SDS011;10397;50.948;11.092;2024-02-26T03:46:28;0.13;;;0.10;;
20476;SDS011;10397;50.948;11.092;2024-02-26T03:48:59;0.00;;;0.00;;
20476;SDS011;10397;50.948;11.092;2024-02-26T03:51:31;0.10;;;0.10;;
20476;SDS011;10397;50.948;11.092;2024-02-26T03:54:02;0.77;;;0.37;;
20476;SDS011;10397;50.948;11.092;2024-02-26T03:56:33;0.13;;;0.13;;
20476;SDS011;10397;50.948;11.092;2024-02-26T03:59:05;0.23;;;0.20;;
20476;SDS011;10397;50.948;11.092;2024-02-26T04:01:37;0.10;;;0.10;;
20476;SDS011;10397;50.948;11.092;2024-02-26T04:04:08;0.47;;;0.20;;
20476;SDS011;10397;50.948;11.092;2024-02-26T04:06:43;0.98;;;0.20;;
20476;SDS011;10397;50.948;11.092;2024-02-26T04:09:13;0.10;;;0.00;;
20476;SDS011;10397;50.948;11.092;2024-02-26T04:11:42;1.13;;;0.40;;
20476;SDS011;10397;50.948;11.092;2024-02-26T04:14:13;0.00;;;0.00;;
20476;SDS011;10397;50.948;11.092;2024-02-26T04:16:45;0.00;;;0.00;;
20476;SDS011;10397;50.948;11.092;2024-02-26T04:19:17;0.10;;;0.00;;
20476;SDS011;10397;50.948;11.092;2024-02-26T04:21:48;0.13;;;0.03;;
20476;SDS011;10397;50.948;11.092;2024-02-26T04:24:19;0.17;;;0.08;;
20476;SDS011;10397;50.948;11.092;2024-02-26T04:26:51;0.00;;;0.00;;
20476;SDS011;10397;50.948;11.092;2024-02-26T04:29:22;0.50;;;0.40;;
20476;SDS011;10397;50.948;11.092;2024-02-26T04:31:53;0.33;;;0.23;;
20476;SDS011;10397;50.948;11.092;2024-02-26T04:34:24;0.10;;;0.00;;
20476;SDS011;10397;50.948;11.092;2024-02-26T04:36:56;0.10;;;0.10;;
20476;SDS011;10397;50.948;11.092;2024-02-26T04:39:27;0.10;;;0.10;;
20476;SDS011;10397;50.948;11.092;2024-02-26T04:41:58;0.00;;;0.00;;
20476;SDS011;10397;50.948;11.092;2024-02-26T04:44:29;0.47;;;0.47;;
20476;SDS011;10397;50.948;11.092;2024-02-26T04:47:00;0.42;;;0.10;;
20476;SDS011;10397;50.948;11.092;2024-02-26T04:49:32;0.20;;;0.20;;
20476;SDS011;10397;50.948;11.092;2024-02-26T04:52:04;0.50;;;0.42;;
20476;SDS011;10397;50.948;11.092;2024-02-26T04:54:35;0.20;;;0.10;;
20476;SDS011;10397;50.948;11.092;2024-02-26T04:57:06;0.27;;;0.10;;
20476;SDS011;10397;50.948;11.092;2024-02-26T04:59:37;1.05;;;0.45;;
20476;SDS011;10397;50.948;11.092;2024-02-26T05:02:09;0.90;;;0.10;;
20476;SDS011;10397;50.948;11.092;2024-02-26T05:04:40;0.65;;;0.40;;
20476;SDS011;10397;50.948;11.092;2024-02-26T05:07:12;0.85;;;0.40;;
20476;SDS011;10397;50.948;11.092;2024-02-26T05:09:44;0.67;;;0.07;;
20476;SDS011;10397;50.948;11.092;2024-02-26T05:12:14;0.45;;;0.45;;
20476;SDS011;10397;50.948;11.092;2024-02-26T05:14:45;0.93;;;0.15;;
20476;SDS011;10397;50.948;11.092;2024-02-26T05:17:17;0.20;;;0.20;;
20476;SDS011;10397;50.948;11.092;2024-02-26T05:19:48;0.37;;;0.33;;
20476;SDS011;10397;50.948;11.092;2024-02-26T05:22:19;0.50;;;0.08;;
20476;SDS011;10397;50.948;11.092;2024-02-26T05:24:50;0.57;;;0.10;;
20476;SDS011;10397;50.948;11.092;2024-02-26T05:27:21;1.00;;;0.33;;
20476;SDS011;10397;50.948;11.092;2024-02-26T05:29:52;0.30;;;0.20;;
20476;SDS011;10397;50.948;11.092;2024-02-26T05:32:23;0.30;;;0.20;;
20476;SDS011;10397;50.948;11.092;2024-02-26T05:34:54;1.30;;;0.57;;
20476;SDS011;10397;50.948;11.092;2024-02-26T05:37:26;0.73;;;0.30;;
20476;SDS011;10397;50.948;11.092;2024-02-26T05:39:57;5.80;;;0.40;;
20476;SDS011;10397;50.948;11.092;2024-02-26T05:42:28;0.43;;;0.27;;
20476;SDS011;10397;50.948;11.092;2024-02-26T05:44:59;1.22;;;0.98;;
20476;SDS011;10397;50.948;11.092;2024-02-26T05:47:30;0.10;;;0.10;;
20476;SDS011;10397;50.948;11.092;2024-02-26T05:50:01;0.40;;;0.30;;
20476;SDS011;10397;50.948;11.092;2024-02-26T05:52:35;3.93;;;1.43;;
20476;SDS011;10397;50.948;11.092;2024-02-26T05:55:09;1.33;;;0.80;;
20476;SDS011;10397;50.948;11.092;2024-02-26T05:57:39;0.60;;;0.37;;
20476;SDS011;10397;50.948;11.092;2024-02-26T06:00:11;3.30;;;1.42;;
20476;SDS011;10397;50.948;11.092;2024-02-26T06:02:42;1.60;;;0.93;;
20476;SDS011;10397;50.948;11.092;2024-02-26T06:05:14;0.93;;;0.57;;
20476;SDS011;10397;50.948;11.092;2024-02-26T06:07:45;0.72;;;0.55;;
20476;SDS011;10397;50.948;11.092;2024-02-26T06:10:16;0.10;;;0.08;;
20476;SDS011;10397;50.948;11.092;2024-02-26T06:12:47;0.72;;;0.60;;
20476;SDS011;10397;50.948;11.092;2024-02-26T06:15:19;0.30;;;0.13;;
20476;SDS011;10397;50.948;11.092;2024-02-26T06:17:51;1.25;;;0.40;;
20476;SDS011;10397;50.948;11.092;2024-02-26T06:20:22;1.00;;;0.65;;
20476;SDS011;10397;50.948;11.092;2024-02-26T06:22:53;0.28;;;0.28;;
20476;SDS011;10397;50.948;11.092;2024-02-26T06:25:25;2.42;;;0.65;;
20476;SDS011;10397;50.948;11.092;2024-02-26T06:27:57;0.45;;;0.17;;
20476;SDS011;10397;50.948;11.092;2024-02-26T06:30:28;1.47;;;0.47;;
20476;SDS011;10397;50.948;11.092;2024-02-26T06:32:59;3.80;;;1.13;;
20476;SDS011;10397;50.948;11.092;2024-02-26T06:35:30;2.42;;;0.47;;
20476;SDS011;10397;50.948;11.092;2024-02-26T06:38:02;1.75;;;0.93;;
20476;SDS011;10397;50.948;11.092;2024-02-26T06:40:32;2.53;;;0.57;;
20476;SDS011;10397;50.948;11.092;2024-02-26T06:43:04;0.33;;;0.33;;
20476;SDS011;10397;50.948;11.092;2024-02-26T06:45:35;0.33;;;0.15;;
20476;SDS011;10397;50.948;11.092;2024-02-26T06:48:06;0.97;;;0.30;;
20476;SDS011;10397;50.948;11.092;2024-02-26T06:50:38;0.20;;;0.20;;
20476;SDS011;10397;50.948;11.092;2024-02-26T06:53:09;0.85;;;0.20;;
20476;SDS011;10397;50.948;11.092;2024-02-26T06:55:41;0.40;;;0.20;;
20476;SDS011;10397;50.948;11.092;2024-02-26T06:58:12;0.78;;;0.13;;
20476;SDS011;10397;50.948;11.092;2024-02-26T07:00:43;1.25;;;0.30;;
20476;SDS011;10397;50.948;11.092;2024-02-26T07:03:15;0.82;;;0.45;;
20476;SDS011;10397;50.948;11.092;2024-02-26T07:05:46;0.63;;;0.60;;
20476;SDS011;10397;50.948;11.092;2024-02-26T07:08:17;0.72;;;0.72;;
20476;SDS011;10397;50.948;11.092;2024-02-26T07:10:48;0.17;;;0.03;;
20476;SDS011;10397;50.948;11.092;2024-02-26T07:13:19;0.60;;;0.28;;
20476;SDS011;10397;50.948;11.092;2024-02-26T07:15:51;0.53;;;0.20;;
20476;SDS011;10397;50.948;11.092;2024-02-26T07:18:22;1.85;;;0.82;;
20476;SDS011;10397;50.948;11.092;2024-02-26T07:20:54;0.78;;;0.20;;
20476;SDS011;10397;50.948;11.092;2024-02-26T07:23:26;0.50;;;0.45;;
20476;SDS011;10397;50.948;11.092;2024-02-26T07:25:58;0.82;;;0.35;;
20476;SDS011;10397;50.948;11.092;2024-02-26T07:28:29;1.95;;;0.80;;
20476;SDS011;10397;50.948;11.092;2024-02-26T07:31:00;4.28;;;0.80;;
20476;SDS011;10397;50.948;11.092;2024-02-26T07:33:32;0.82;;;0.68;;
20476;SDS011;10397;50.948;11.092;2024-02-26T07:36:04;0.72;;;0.28;;
20476;SDS011;10397;50.948;11.092;2024-02-26T07:38:34;1.07;;;0.60;;
20476;SDS011;10397;50.948;11.092;2024-02-26T07:41:05;0.60;;;0.30;;
20476;SDS011;10397;50.948;11.092;2024-02-26T07:43:36;0.63;;;0.30;;
20476;SDS011;10397;50.948;11.092;2024-02-26T07:46:07;0.60;;;0.27;;
20476;SDS011;10397;50.948;11.092;2024-02-26T07:48:39;1.22;;;0.93;;
20476;SDS011;10397;50.948;11.092;2024-02-26T07:51:12;0.37;;;0.37;;
20476;SDS011;10397;50.948;11.092;2024-02-26T07:53:43;1.37;;;0.53;;
20476;SDS011;10397;50.948;11.092;2024-02-26T07:56:14;0.33;;;0.33;;
20476;SDS011;10397;50.948;11.092;2024-02-26T07:58:45;2.45;;;0.70;;
20476;SDS011;10397;50.948;11.092;2024-02-26T08:01:16;2.03;;;0.80;;
20476;SDS011;10397;50.948;11.092;2024-02-26T08:03:48;1.67;;;0.70;;
20476;SDS011;10397;50.948;11.092;2024-02-26T08:06:19;1.40;;;0.90;;
20476;SDS011;10397;50.948;11.092;2024-02-26T08:08:50;1.70;;;1.23;;
20476;SDS011;10397;50.948;11.092;2024-02-26T08:11:22;1.67;;;0.93;;
20476;SDS011;10397;50.948;11.092;2024-02-26T08:13:53;1.30;;;0.50;;
20476;SDS011;10397;50.948;11.092;2024-02-26T08:16:24;2.67;;;1.07;;
20476;SDS011;10397;50.948;11.092;2024-02-26T08:18:56;1.02;;;0.93;;
20476;SDS011;10397;50.948;11.092;2024-02-26T08:21:27;1.17;;;0.50;;
20476;SDS011;10397;50.948;11.092;2024-02-26T08:23:58;2.05;;;1.35;;
20476;SDS011;10397;50.948;11.092;2024-02-26T08:26:30;0.70;;;0.60;;
20476;SDS011;10397;50.948;11.092;2024-02-26T08:29:01;1.13;;;0.93;;
20476;SDS011;10397;50.948;11.092;2024-02-26T08:31:32;1.17;;;0.30;;
20476;SDS011;10397;50.948;11.092;2024-02-26T08:34:04;0.57;;;0.50;;
20476;SDS011;10397;50.948;11.092;2024-02-26T08:36:35;1.00;;;0.45;;
20476;SDS011;10397;50.948;11.092;2024-02-26T08:39:06;0.83;;;0.60;;
20476;SDS011;10397;50.948;11.092;2024-02-26T08:41:37;1.85;;;1.10;;
20476;SDS011;10397;50.948;11.092;2024-02-26T08:44:09;1.80;;;1.40;;
20476;SDS011;10397;50.948;11.092;2024-02-26T08:46:40;1.87;;;0.40;;
20476;SDS011;10397;50.948;11.092;2024-02-26T08:49:11;0.73;;;0.50;;
20476;SDS011;10397;50.948;11.092;2024-02-26T08:51:42;1.30;;;0.80;;
20476;SDS011;10397;50.948;11.092;2024-02-26T08:54:13;1.53;;;1.17;;
20476;SDS011;10397;50.948;11.092;2024-02-26T08:56:45;1.37;;;0.80;;
20476;SDS011;10397;50.948;11.092;2024-02-26T08:59:16;1.17;;;0.95;;
20476;SDS011;10397;50.948;11.092;2024-02-26T09:01:48;1.25;;;0.93;;
20476;SDS011;10397;50.948;11.092;2024-02-26T09:04:19;1.00;;;0.80;;
20476;SDS011;10397;50.948;11.092;2024-02-26T09:06:50;2.20;;;1.67;;
20476;SDS011;10397;50.948;11.092;2024-02-26T09:09:22;1.05;;;0.95;;
20476;SDS011;10397;50.948;11.092;2024-02-26T09:11:54;2.02;;;1.62;;
20476;SDS011;10397;50.948;11.092;2024-02-26T09:14:25;2.25;;;1.20;;
20476;SDS011;10397;50.948;11.092;2024-02-26T09:16:57;4.67;;;2.37;;
20476;SDS011;10397;50.948;11.092;2024-02-26T09:19:29;3.50;;;1.10;;
20476;SDS011;10397;50.948;11.092;2024-02-26T09:22:01;1.85;;;1.17;;
20476;SDS011;10397;50.948;11.092;2024-02-26T09:24:31;2.63;;;1.73;;
20476;SDS011;10397;50.948;11.092;2024-02-26T09:27:02;2.30;;;1.33;;
20476;SDS011;10397;50.948;11.092;2024-02-26T09:29:35;2.22;;;1.00;;
20476;SDS011;10397;50.948;11.092;2024-02-26T09:32:04;3.87;;;1.40;;
20476;SDS011;10397;50.948;11.092;2024-02-26T09:34:35;3.20;;;1.10;;
20476;SDS011;10397;50.948;11.092;2024-02-26T09:37:06;3.13;;;1.87;;
20476;SDS011;10397;50.948;11.092;2024-02-26T09:39:38;3.17;;;2.87;;
20476;SDS011;10397;50.948;11.092;2024-02-26T09:42:09;2.72;;;1.77;;
20476;SDS011;10397;50.948;11.092;2024-02-26T09:44:40;3.00;;;1.42;;
20476;SDS011;10397;50.948;11.092;2024-02-26T09:47:12;3.47;;;1.95;;
20476;SDS011;10397;50.948;11.092;2024-02-26T09:49:42;2.50;;;1.67;;
20476;SDS011;10397;50.948;11.092;2024-02-26T09:52:13;1.60;;;1.32;;
20476;SDS011;10397;50.948;11.092;2024-02-26T09:54:46;2.05;;;1.62;;
20476;SDS011;10397;50.948;11.092;2024-02-26T09:57:18;3.43;;;2.20;;
20476;SDS011;10397;50.948;11.092;2024-02-26T09:59:49;2.20;;;1.40;;
20476;SDS011;10397;50.948;11.092;2024-02-26T10:02:20;5.85;;;3.22;;
20476;SDS011;10397;50.948;11.092;2024-02-26T10:04:51;3.77;;;2.08;;
20476;SDS011;10397;50.948;11.092;2024-02-26T10:07:23;2.10;;;1.32;;
20476;SDS011;10397;50.948;11.092;2024-02-26T10:09:54;3.50;;;2.15;;
20476;SDS011;10397;50.948;11.092;2024-02-26T10:12:25;4.42;;;2.75;;
20476;SDS011;10397;50.948;11.092;2024-02-26T10:14:57;2.17;;;1.17;;
20476;SDS011;10397;50.948;11.092;2024-02-26T10:17:28;3.45;;;2.52;;
20476;SDS011;10397;50.948;11.092;2024-02-26T10:20:21;3.47;;;2.10;;
20476;SDS011;10397;50.948;11.092;2024-02-26T10:22:33;6.27;;;1.87;;
20476;SDS011;10397;50.948;11.092;2024-02-26T10:25:04;1.73;;;1.40;;
20476;SDS011;10397;50.948;11.092;2024-02-26T10:27:35;3.15;;;2.25;;
20476;SDS011;10397;50.948;11.092;2024-02-26T10:30:16;4.10;;;2.27;;
20476;SDS011;10397;50.948;11.092;2024-02-26T10:32:46;7.73;;;2.90;;
20476;SDS011;10397;50.948;11.092;2024-02-26T10:35:16;3.92;;;2.58;;
20476;SDS011;10397;50.948;11.092;2024-02-26T10:37:47;3.40;;;1.42;;
20476;SDS011;10397;50.948;11.092;2024-02-26T10:40:18;1.95;;;1.42;;
20476;SDS011;10397;50.948;11.092;2024-02-26T10:42:50;3.45;;;2.85;;
20476;SDS011;10397;50.948;11.092;2024-02-26T10:45:21;2.33;;;1.72;;
20476;SDS011;10397;50.948;11.092;2024-02-26T10:47:52;2.40;;;1.80;;
20476;SDS011;10397;50.948;11.092;2024-02-26T10:50:23;5.08;;;2.12;;
20476;SDS011;10397;50.948;11.092;2024-02-26T10:52:55;4.37;;;1.82;;
20476;SDS011;10397;50.948;11.092;2024-02-26T10:55:26;2.58;;;1.85;;
20476;SDS011;10397;50.948;11.092;2024-02-26T10:57:58;2.52;;;1.80;;
20476;SDS011;10397;50.948;11.092;2024-02-26T11:00:29;4.92;;;2.75;;
20476;SDS011;10397;50.948;11.092;2024-02-26T11:03:01;3.85;;;2.05;;
20476;SDS011;10397;50.948;11.092;2024-02-26T11:05:33;2.92;;;1.50;;
20476;SDS011;10397;50.948;11.092;2024-02-26T11:08:04;2.87;;;1.45;;
20476;SDS011;10397;50.948;11.092;2024-02-26T11:10:34;5.65;;;2.20;;
20476;SDS011;10397;50.948;11.092;2024-02-26T11:13:05;1.93;;;1.23;;
20476;SDS011;10397;50.948;11.092;2024-02-26T11:15:36;3.60;;;2.15;;
20476;SDS011;10397;50.948;11.092;2024-02-26T11:18:08;3.02;;;2.15;;
20476;SDS011;10397;50.948;11.092;2024-02-26T11:20:39;3.77;;;2.67;;
20476;SDS011;10397;50.948;11.092;2024-02-26T11:23:10;3.75;;;2.42;;
20476;SDS011;10397;50.948;11.092;2024-02-26T11:25:41;3.42;;;1.90;;
20476;SDS011;10397;50.948;11.092;2024-02-26T11:28:14;1.43;;;1.30;;
20476;SDS011;10397;50.948;11.092;2024-02-26T11:30:44;2.45;;;1.47;;
20476;SDS011;10397;50.948;11.092;2024-02-26T11:33:15;3.98;;;2.22;;
20476;SDS011;10397;50.948;11.092;2024-02-26T11:35:45;2.45;;;1.27;;
20476;SDS011;10397;50.948;11.092;2024-02-26T11:38:17;5.10;;;2.98;;
20476;SDS011;10397;50.948;11.092;2024-02-26T11:40:48;5.50;;;2.52;;
20476;SDS011;10397;50.948;11.092;2024-02-26T11:43:23;5.30;;;3.15;;
20476;SDS011;10397;50.948;11.092;2024-02-26T11:45:53;4.93;;;2.77;;
20476;SDS011;10397;50.948;11.092;2024-02-26T11:48:24;3.02;;;2.20;;
20476;SDS011;10397;50.948;11.092;2024-02-26T11:50:56;3.05;;;1.77;;
20476;SDS011;10397;50.948;11.092;2024-02-26T11:53:27;3.57;;;2.90;;
20476;SDS011;10397;50.948;11.092;2024-02-26T11:58:59;2.27;;;1.50;;
20476;SDS011;10397;50.948;11.092;2024-02-26T12:01:47;2.50;;;1.93;;
20476;SDS011;10397;50.948;11.092;2024-02-26T12:04:18;4.50;;;2.10;;
20476;SDS011;10397;50.948;11.092;2024-02-26T12:06:58;7.05;;;2.80;;
20476;SDS011;10397;50.948;11.092;2024-02-26T12:09:40;4.17;;;2.17;;
20476;SDS011;10397;50.948;11.092;2024-02-26T12:12:10;5.30;;;2.50;;
20476;SDS011;10397;50.948;11.092;2024-02-26T12:14:53;3.58;;;2.00;;
20476;SDS011;10397;50.948;11.092;2024-02-26T12:17:24;2.30;;;1.67;;
20476;SDS011;10397;50.948;11.092;2024-02-26T12:19:54;2.02;;;1.40;;
20476;SDS011;10397;50.948;11.092;2024-02-26T12:22:26;1.98;;;1.20;;
20476;SDS011;10397;50.948;11.092;2024-02-26T12:25:00;1.98;;;1.47;;
20476;SDS011;10397;50.948;11.092;2024-02-26T12:27:31;2.67;;;1.20;;
20476;SDS011;10397;50.948;11.092;2024-02-26T12:30:03;2.93;;;1.83;;
20476;SDS011;10397;50.948;11.092;2024-02-26T12:32:34;3.12;;;2.30;;
20476;SDS011;10397;50.948;11.092;2024-02-26T12:35:05;3.20;;;1.15;;
20476;SDS011;10397;50.948;11.092;2024-02-26T12:37:35;2.92;;;1.92;;
20476;SDS011;10397;50.948;11.092;2024-02-26T12:40:06;2.47;;;1.63;;
20476;SDS011;10397;50.948;11.092;2024-02-26T12:42:38;2.00;;;1.80;;
20476;SDS011;10397;50.948;11.092;2024-02-26T12:45:08;3.13;;;2.20;;
20476;SDS011;10397;50.948;11.092;2024-02-26T12:47:38;2.50;;;1.37;;
20476;SDS011;10397;50.948;11.092;2024-02-26T12:50:10;4.12;;;2.33;;
20476;SDS011;10397;50.948;11.092;2024-02-26T12:52:43;2.42;;;1.87;;
20476;SDS011;10397;50.948;11.092;2024-02-26T12:55:14;2.40;;;1.60;;
20476;SDS011;10397;50.948;11.092;2024-02-26T12:57:45;3.47;;;1.60;;
20476;SDS011;10397;50.948;11.092;2024-02-26T13:00:16;2.37;;;2.17;;
20476;SDS011;10397;50.948;11.092;2024-02-26T13:02:46;2.47;;;1.80;;
20476;SDS011;10397;50.948;11.092;2024-02-26T13:05:17;2.58;;;1.52;;
20476;SDS011;10397;50.948;11.092;2024-02-26T13:07:48;3.35;;;2.72;;
20476;SDS011;10397;50.948;11.092;2024-02-26T13:10:19;1.85;;;1.27;;
20476;SDS011;10397;50.948;11.092;2024-02-26T13:12:51;4.20;;;2.20;;
20476;SDS011;10397;50.948;11.092;2024-02-26T13:15:23;1.35;;;1.05;;
20476;SDS011;10397;50.948;11.092;2024-02-26T13:17:53;2.73;;;1.57;;
20476;SDS011;10397;50.948;11.092;2024-02-26T13:20:27;2.90;;;1.20;;
20476;SDS011;10397;50.948;11.092;2024-02-26T13:23:04;2.37;;;1.73;;
20476;SDS011;10397;50.948;11.092;2024-02-26T13:25:31;3.67;;;1.00;;
20476;SDS011;10397;50.948;11.092;2024-02-26T13:28:09;3.55;;;1.52;;
20476;SDS011;10397;50.948;11.092;2024-02-26T13:30:39;1.77;;;1.37;;
20476;SDS011;10397;50.948;11.092;2024-02-26T13:33:11;5.37;;;2.45;;
20476;SDS011;10397;50.948;11.092;2024-02-26T13:35:41;2.83;;;1.80;;
20476;SDS011;10397;50.948;11.092;2024-02-26T13:38:12;1.63;;;1.10;;
20476;SDS011;10397;50.948;11.092;2024-02-26T13:40:43;2.30;;;1.50;;
20476;SDS011;10397;50.948;11.092;2024-02-26T13:43:15;3.55;;;1.98;;
20476;SDS011;10397;50.948;11.092;2024-02-26T13:45:46;1.30;;;0.88;;
20476;SDS011;10397;50.948;11.092;2024-02-26T13:48:18;3.08;;;1.80;;
20476;SDS011;10397;50.948;11.092;2024-02-26T13:50:49;3.30;;;2.20;;
20476;SDS011;10397;50.948;11.092;2024-02-26T13:53:21;3.65;;;1.92;;
20476;SDS011;10397;50.948;11.092;2024-02-26T13:55:52;3.50;;;1.70;;
20476;SDS011;10397;50.948;11.092;2024-02-26T13:58:23;2.08;;;1.50;;
20476;SDS011;10397;50.948;11.092;2024-02-26T14:00:54;3.00;;;1.47;;
20476;SDS011;10397;50.948;11.092;2024-02-26T14:03:25;3.00;;;1.92;;
20476;SDS011;10397;50.948;11.092;2024-02-26T14:05:57;2.10;;;1.45;;
20476;SDS011;10397;50.948;11.092;2024-02-26T14:08:27;3.40;;;2.07;;
20476;SDS011;10397;50.948;11.092;2024-02-26T14:10:59;2.87;;;1.47;;
20476;SDS011;10397;50.948;11.092;2024-02-26T14:13:30;1.90;;;1.57;;
20476;SDS011;10397;50.948;11.092;2024-02-26T14:16:01;2.08;;;1.87;;
20476;SDS011;10397;50.948;11.092;2024-02-26T14:18:32;2.42;;;1.60;;
20476;SDS011;10397;50.948;11.092;2024-02-26T14:21:04;7.05;;;2.30;;
20476;SDS011;10397;50.948;11.092;2024-02-26T14:23:35;2.95;;;1.65;;
20476;SDS011;10397;50.948;11.092;2024-02-26T14:26:05;2.77;;;1.63;;
20476;SDS011;10397;50.948;11.092;2024-02-26T14:28:36;3.73;;;1.60;;
20476;SDS011;10397;50.948;11.092;2024-02-26T14:31:08;1.87;;;1.07;;
20476;SDS011;10397;50.948;11.092;2024-02-26T14:33:39;1.60;;;0.83;;
20476;SDS011;10397;50.948;11.092;2024-02-26T14:36:11;1.67;;;1.10;;
20476;SDS011;10397;50.948;11.092;2024-02-26T14:38:41;2.83;;;1.50;;
20476;SDS011;10397;50.948;11.092;2024-02-26T14:41:13;2.57;;;1.47;;
20476;SDS011;10397;50.948;11.092;2024-02-26T14:43:43;2.50;;;1.17;;
20476;SDS011;10397;50.948;11.092;2024-02-26T14:46:14;3.27;;;1.37;;
20476;SDS011;10397;50.948;11.092;2024-02-26T14:48:46;1.73;;;0.90;;
20476;SDS011;10397;50.948;11.092;2024-02-26T14:51:17;1.93;;;1.37;;
20476;SDS011;10397;50.948;11.092;2024-02-26T14:53:48;1.80;;;1.07;;
20476;SDS011;10397;50.948;11.092;2024-02-26T14:56:19;1.33;;;0.83;;
20476;SDS011;10397;50.948;11.092;2024-02-26T14:58:50;2.60;;;1.67;;
20476;SDS011;10397;50.948;11.092;2024-02-26T15:01:21;4.43;;;2.50;;